Enigma, Georgia
Current Conditions -  °F | °C
As of 5:50 AM on Saturday 25 Oct 2014 (Local Time) from KTMA Reporting Station
Clear Clear  
Wind Chill: 46°   Ceiling: Unl
Heat Index: 46°   Visibility: 10mi
Dew Point: 45°   Wind: 0mph
Humidity: 97%   Direction: NA
Pressure: 30"   Gusts: NA
Location:  31.41°N, 83.33°W
Report Text: KTMA 250950Z AUTO 00000KT 10SM CLR 08/07 A3000 RMK AO2 T00780074
Loading
Personal Weather Stations






























Interactive Weather Map
Tropical Storm Tracking
New forecast layout! Learn more

10-Day Weather Forecast

Advertisements
Track Severe Weather on mobile